KADW

Joint Base Andrews Airport

Camp Springs, Maryland, USA
TAF AMD KADW 200945Z 2009/2115 17012G18KT 9999 FEW010 SCT030 QNH2929INS TEMPO 2009/2012 17025G35KT 520003 BECMG 2010/2012 19012G18KT 3200 -RA BR OVC006 QNH2929INS TEMPO 2012/2014 20025G35KT 520003 BECMG 2013/2014 25025G35KT 6000 -RA OVC010 520003 QNH2931INS BECMG 2015/2016 32025G35KT 9999 NSW SCT025 520003 QNH2946INS BECMG 2023/2024 32030G40KT 9999 SCT030 520003 QNH2971INS TX13/2012Z TNM09/2109Z
Issued Valid From Valid To
Jan-20 @ 09:45 UTC
(an hour ago)
Jan-20 @ 09:00 UTC
(2 hours ago)
Jan-21 @ 15:00 UTC
(-1 days ago)
Expired Click to View Jan-20 @ 09:00 to Jan-20 @ 10:00
TAF AMD KADW 200945Z 2009/2115 17012G18KT 9999 FEW010 SCT030 QNH2929INS
Wind Visibility Clouds Readings
170° at 12 knots
 Gusting to 18 knots
Greater than 6 miles
  • Few at 1,000' AGL
  • Scattered at 3,000' AGL
Altimeter 29.29" Hg
Pressure 991.92 hPa
Temporary Jan-20 @ 09:00 to Jan-20 @ 12:00
TEMPO 2009/2012 17025G35KT 520003
Wind Turbulence
170° at 25 knots
 Gusting to 35 knots
Occasional moderate clear air turbulence expected at the surface extending to 3,000' AGL
Becoming Jan-20 @ 10:00 to Jan-20 @ 13:00
BECMG 2010/2012 19012G18KT 3200 -RA BR OVC006 QNH2929INS
Wind Visibility Clouds Conditions Readings
190° at 12 knots
 Gusting to 18 knots
199 miles
  • Overcast at 600' AGL
  • Light Rain
  • Mist
Altimeter 29.29" Hg
Pressure 991.92 hPa
Temporary Jan-20 @ 12:00 to Jan-20 @ 14:00
TEMPO 2012/2014 20025G35KT 520003
Wind Turbulence
200° at 25 knots
 Gusting to 35 knots
Occasional moderate clear air turbulence expected at the surface extending to 3,000' AGL
Becoming Jan-20 @ 13:00 to Jan-20 @ 15:00
BECMG 2013/2014 25025G35KT 6000 -RA OVC010 520003 QNH2931INS
Wind Visibility Clouds Conditions Readings Turbulence
250° at 25 knots
 Gusting to 35 knots
373 miles
  • Overcast at 1,000' AGL
  • Light Rain
Altimeter 29.32" Hg
Pressure 992.92 hPa
Occasional moderate clear air turbulence expected at the surface extending to 3,000' AGL
Becoming Jan-20 @ 15:00 to Jan-20 @ 23:00
BECMG 2015/2016 32025G35KT 9999 NSW SCT025 520003 QNH2946INS
Wind Visibility Clouds Conditions Readings Turbulence
320° at 25 knots
 Gusting to 35 knots
Greater than 6 miles
  • Scattered at 2,500' AGL
Altimeter 29.47" Hg
Pressure 997.92 hPa
Occasional moderate clear air turbulence expected at the surface extending to 3,000' AGL
Becoming Jan-20 @ 23:00 to Jan-21 @ 15:00
BECMG 2023/2024 32030G40KT 9999 SCT030 520003 QNH2971INS TX13/2012Z TNM09/2109Z
Wind Visibility Clouds Conditions Readings Turbulence
320° at 30 knots
 Gusting to 40 knots
Greater than 6 miles
  • Scattered at 3,000' AGL
Altimeter 29.7" Hg
Pressure 1005.92 hPa
Occasional moderate clear air turbulence expected at the surface extending to 3,000' AGL
TAF AMD KADW 200945Z 2009/2115 17012G18KT 9999 FEW010 SCT030 QNH2929INS TEMPO 2009/2012 17025G35KT 520003 BECMG 2010/2012 19012G18KT 3200 -RA BR OVC006 QNH2929INS TEMPO 2012/2014 20025G35KT 520003 BECMG 2013/2014 25025G35KT 6000 -RA OVC010 520003 QNH2931INS BECMG 2015/2016 32025G35KT 9999 NSW SCT025 520003 QNH2946INS BECMG 2023/2024 32030G40KT 9999 SCT030 520003 QNH2971INS TX13/2012Z TNM09/2109Z
Issued Jan-20 @ 09:45 UTC
(an hour ago)
Valid From Jan-20 @ 09:00 UTC
(2 hours ago)
Valid To Jan-21 @ 15:00 UTC
(-1 days ago)
Jan-20 @ 09:00 - Jan-20 @ 10:00
Wind Visibility
170° at 12 knots
 Gusting to 18 knots
Greater than 6 miles
Clouds
  • Few at 1,000' AGL
  • Scattered at 3,000' AGL
Temporary Jan-20 @ 09:00 - Jan-20 @ 12:00
Wind
170° at 25 knots
 Gusting to 35 knots
Becoming Jan-20 @ 10:00 - Jan-20 @ 13:00
Wind Visibility
190° at 12 knots
 Gusting to 18 knots
199 miles
Clouds
  • Overcast at 600' AGL
Conditions
  • Light Rain
  • Mist
Temporary Jan-20 @ 12:00 - Jan-20 @ 14:00
Wind
200° at 25 knots
 Gusting to 35 knots
Becoming Jan-20 @ 13:00 - Jan-20 @ 15:00
Wind Visibility
250° at 25 knots
 Gusting to 35 knots
373 miles
Clouds
  • Overcast at 1,000' AGL
Conditions
  • Light Rain
Becoming Jan-20 @ 15:00 - Jan-20 @ 23:00
Wind Visibility
320° at 25 knots
 Gusting to 35 knots
Greater than 6 miles
Clouds
  • Scattered at 2,500' AGL
Conditions
Becoming Jan-20 @ 23:00 - Jan-21 @ 15:00
Wind Visibility
320° at 30 knots
 Gusting to 40 knots
Greater than 6 miles
Clouds
  • Scattered at 3,000' AGL
Conditions